EJU121D LFBO-LFRS
Flight info
| Callsign | EJU121D |
|---|---|
| Flight time | 0h 48m |
| Altitude | 30000 |
| Route | LACOU DCT CHALA DCT CNA DCT MANAK |
| Aircraft | A320/M-SDE2E3FGHIJ1RWXYZ/LB1 |
Departure
| Time | 2026-05-07 23:20 |
|---|---|
| Airport | Toulouse-Blagnac Airport (LFBO) |
Arrival
| Time | 2026-05-08 00:08 |
|---|---|
| Airport | Nantes Atlantique Airport (LFRS) |
| Time | Latitude | Longitude | Altitude | Speed | Heading |
|---|---|---|---|---|---|
| 2026-05-07 22:52 | 43.62912 | 1.37395 | 494 ft | 0 kts | 47° |
| 2026-05-07 23:12 | 43.62904 | 1.37382 | 484 ft | 4 kts | 49° |
| 2026-05-07 23:12 | 43.62887 | 1.37353 | 491 ft | 4 kts | 55° |
| 2026-05-07 23:12 | 43.62873 | 1.37321 | 489 ft | 4 kts | 69° |
| 2026-05-07 23:13 | 43.62869 | 1.37289 | 491 ft | 4 kts | 120° |
| 2026-05-07 23:13 | 43.62873 | 1.37280 | 492 ft | 0 kts | 143° |
| 2026-05-07 23:14 | 43.62871 | 1.37283 | 492 ft | 2 kts | 142° |
| 2026-05-07 23:15 | 43.62839 | 1.37316 | 494 ft | 9 kts | 143° |
| 2026-05-07 23:15 | 43.62782 | 1.37376 | 489 ft | 12 kts | 142° |
| 2026-05-07 23:15 | 43.62706 | 1.37455 | 491 ft | 15 kts | 143° |
| 2026-05-07 23:15 | 43.62624 | 1.37452 | 487 ft | 14 kts | 227° |
| 2026-05-07 23:16 | 43.62565 | 1.37336 | 489 ft | 14 kts | 253° |
| 2026-05-07 23:16 | 43.62628 | 1.37226 | 489 ft | 17 kts | 322° |
| 2026-05-07 23:16 | 43.62730 | 1.37121 | 490 ft | 20 kts | 323° |
| 2026-05-07 23:16 | 43.62848 | 1.36997 | 489 ft | 23 kts | 323° |
| 2026-05-07 23:17 | 43.62983 | 1.36858 | 483 ft | 25 kts | 323° |
| 2026-05-07 23:17 | 43.63131 | 1.36704 | 488 ft | 28 kts | 323° |
| 2026-05-07 23:17 | 43.63284 | 1.36544 | 490 ft | 23 kts | 323° |
| 2026-05-07 23:17 | 43.63406 | 1.36420 | 486 ft | 23 kts | 323° |
| 2026-05-07 23:18 | 43.63541 | 1.36279 | 489 ft | 26 kts | 323° |
| 2026-05-07 23:18 | 43.63681 | 1.36132 | 491 ft | 21 kts | 322° |
| 2026-05-07 23:18 | 43.63770 | 1.36041 | 486 ft | 15 kts | 324° |
| 2026-05-07 23:18 | 43.63811 | 1.35932 | 486 ft | 13 kts | 255° |
| 2026-05-07 23:19 | 43.63766 | 1.35841 | 487 ft | 11 kts | 233° |
| 2026-05-07 23:19 | 43.63713 | 1.35791 | 493 ft | 10 kts | 171° |
| 2026-05-07 23:19 | 43.63560 | 1.35947 | 488 ft | 60 kts | 143° |
| 2026-05-07 23:19 | 43.63048 | 1.36481 | 487 ft | 122 kts | 143° |
| 2026-05-07 23:20 | 43.62235 | 1.37326 | 504 ft | 168 kts | 143° |
| 2026-05-07 23:20 | 43.61290 | 1.38317 | 1078 ft | 169 kts | 142° |
| 2026-05-07 23:20 | 43.60355 | 1.39302 | 1797 ft | 168 kts | 147° |
| 2026-05-07 23:20 | 43.59212 | 1.39516 | 2467 ft | 175 kts | 198° |
| 2026-05-07 23:21 | 43.58200 | 1.38577 | 3090 ft | 179 kts | 225° |
| 2026-05-07 23:21 | 43.57504 | 1.37143 | 3741 ft | 185 kts | 245° |
| 2026-05-07 23:21 | 43.57267 | 1.35292 | 4022 ft | 212 kts | 275° |
| 2026-05-07 23:21 | 43.57819 | 1.33306 | 4263 ft | 239 kts | 309° |
| 2026-05-07 23:22 | 43.59269 | 1.32033 | 4640 ft | 263 kts | 346° |
| 2026-05-07 23:22 | 43.61121 | 1.31617 | 5302 ft | 275 kts | 354° |
| 2026-05-07 23:22 | 43.63045 | 1.31379 | 6163 ft | 279 kts | 356° |
| 2026-05-07 23:22 | 43.64994 | 1.31204 | 7034 ft | 282 kts | 356° |
| 2026-05-07 23:23 | 43.66959 | 1.31025 | 7890 ft | 285 kts | 356° |
| 2026-05-07 23:23 | 43.68894 | 1.30460 | 8695 ft | 288 kts | 335° |
| 2026-05-07 23:23 | 43.70698 | 1.29220 | 9556 ft | 291 kts | 333° |
| 2026-05-07 23:23 | 43.72532 | 1.27997 | 10296 ft | 298 kts | 334° |
| 2026-05-07 23:24 | 43.74480 | 1.26738 | 10549 ft | 321 kts | 334° |
| 2026-05-07 23:24 | 43.76546 | 1.25419 | 11125 ft | 330 kts | 334° |
| 2026-05-07 23:24 | 43.78646 | 1.24076 | 11845 ft | 335 kts | 334° |
| 2026-05-07 23:24 | 43.80773 | 1.22707 | 12605 ft | 339 kts | 334° |
| 2026-05-07 23:25 | 43.82921 | 1.21315 | 13346 ft | 343 kts | 334° |
| 2026-05-07 23:25 | 43.85087 | 1.19905 | 14037 ft | 346 kts | 333° |
| 2026-05-07 23:25 | 43.87274 | 1.18470 | 14677 ft | 349 kts | 333° |
| 2026-05-07 23:25 | 43.89482 | 1.17013 | 15312 ft | 353 kts | 333° |
| 2026-05-07 23:26 | 43.91709 | 1.15547 | 15946 ft | 356 kts | 333° |
| 2026-05-07 23:26 | 43.93958 | 1.14070 | 16588 ft | 359 kts | 333° |
| 2026-05-07 23:26 | 43.96230 | 1.12576 | 17194 ft | 363 kts | 332° |
| 2026-05-07 23:26 | 43.98525 | 1.11067 | 17807 ft | 367 kts | 332° |
| 2026-05-07 23:27 | 44.03182 | 1.08003 | 18943 ft | 374 kts | 332° |
| 2026-05-07 23:27 | 44.05540 | 1.06447 | 19457 ft | 377 kts | 332° |
| 2026-05-07 23:27 | 44.07919 | 1.04872 | 19988 ft | 380 kts | 332° |
| 2026-05-07 23:28 | 44.10284 | 1.03305 | 20506 ft | 383 kts | 332° |
| 2026-05-07 23:28 | 44.12698 | 1.01708 | 21034 ft | 386 kts | 332° |
| 2026-05-07 23:28 | 44.15133 | 1.00097 | 21546 ft | 389 kts | 331° |
| 2026-05-07 23:28 | 44.17584 | 0.98474 | 22039 ft | 392 kts | 331° |
| 2026-05-07 23:29 | 44.20054 | 0.96841 | 22533 ft | 394 kts | 331° |
| 2026-05-07 23:29 | 44.22540 | 0.95195 | 23040 ft | 397 kts | 331° |
| 2026-05-07 23:29 | 44.25044 | 0.93532 | 23509 ft | 400 kts | 330° |
| 2026-05-07 23:29 | 44.27564 | 0.91852 | 23908 ft | 403 kts | 331° |
| 2026-05-07 23:30 | 44.30101 | 0.90159 | 24315 ft | 405 kts | 330° |
| 2026-05-07 23:30 | 44.32635 | 0.88412 | 24716 ft | 407 kts | 329° |
| 2026-05-07 23:30 | 44.35164 | 0.86609 | 25117 ft | 409 kts | 329° |
| 2026-05-07 23:30 | 44.37696 | 0.84770 | 25503 ft | 411 kts | 329° |
| 2026-05-07 23:31 | 44.40237 | 0.82915 | 25892 ft | 413 kts | 329° |
| 2026-05-07 23:31 | 44.42796 | 0.81051 | 26286 ft | 416 kts | 329° |
| 2026-05-07 23:31 | 44.45371 | 0.79184 | 26655 ft | 418 kts | 329° |
| 2026-05-07 23:31 | 44.47960 | 0.77312 | 27023 ft | 420 kts | 330° |
| 2026-05-07 23:32 | 44.50567 | 0.75431 | 27407 ft | 422 kts | 330° |
| 2026-05-07 23:32 | 44.53180 | 0.73545 | 27803 ft | 423 kts | 330° |
| 2026-05-07 23:32 | 44.55804 | 0.71650 | 28194 ft | 425 kts | 330° |
| 2026-05-07 23:32 | 44.58435 | 0.69746 | 28549 ft | 427 kts | 330° |
| 2026-05-07 23:33 | 44.61080 | 0.67832 | 28912 ft | 429 kts | 330° |
| 2026-05-07 23:33 | 44.63737 | 0.65910 | 29264 ft | 431 kts | 330° |
| 2026-05-07 23:33 | 44.66406 | 0.63975 | 29623 ft | 433 kts | 330° |
| 2026-05-07 23:33 | 44.69087 | 0.62024 | 29916 ft | 436 kts | 330° |
| 2026-05-07 23:34 | 44.74355 | 0.58194 | 29973 ft | 414 kts | 330° |
| 2026-05-07 23:34 | 44.79431 | 0.54496 | 29975 ft | 409 kts | 330° |
| 2026-05-07 23:35 | 44.84478 | 0.50810 | 29974 ft | 408 kts | 330° |
| 2026-05-07 23:35 | 44.89480 | 0.47141 | 29975 ft | 408 kts | 330° |
| 2026-05-07 23:36 | 44.94514 | 0.43443 | 29976 ft | 408 kts | 330° |
| 2026-05-07 23:36 | 44.99547 | 0.39752 | 29980 ft | 407 kts | 330° |
| 2026-05-07 23:37 | 45.04574 | 0.36057 | 29973 ft | 407 kts | 329° |
| 2026-05-07 23:37 | 45.09604 | 0.32340 | 29966 ft | 408 kts | 329° |
| 2026-05-07 23:38 | 45.14640 | 0.28610 | 29962 ft | 409 kts | 329° |
| 2026-05-07 23:38 | 45.19685 | 0.24880 | 29974 ft | 409 kts | 329° |
| 2026-05-07 23:39 | 45.24741 | 0.21138 | 29973 ft | 410 kts | 329° |
| 2026-05-07 23:39 | 45.29799 | 0.17373 | 29973 ft | 411 kts | 329° |
| 2026-05-07 23:40 | 45.34797 | 0.13460 | 29971 ft | 408 kts | 322° |
| 2026-05-07 23:40 | 45.38976 | 0.08119 | 29984 ft | 403 kts | 311° |
| 2026-05-07 23:41 | 45.42914 | 0.02427 | 29970 ft | 404 kts | 311° |
| 2026-05-07 23:41 | 45.46827 | -0.03242 | 29982 ft | 404 kts | 311° |
| 2026-05-07 23:42 | 45.50759 | -0.08954 | 29982 ft | 403 kts | 311° |
| 2026-05-07 23:42 | 45.54685 | -0.14669 | 29979 ft | 403 kts | 311° |
| 2026-05-07 23:43 | 45.58603 | -0.20386 | 29988 ft | 403 kts | 311° |
| 2026-05-07 23:43 | 45.62515 | -0.26111 | 29977 ft | 403 kts | 311° |
| 2026-05-07 23:44 | 45.66485 | -0.31757 | 29971 ft | 405 kts | 317° |
| 2026-05-07 23:44 | 45.70888 | -0.36700 | 29597 ft | 395 kts | 319° |
| 2026-05-07 23:45 | 45.73034 | -0.39106 | 29314 ft | 390 kts | 319° |
| 2026-05-07 23:45 | 45.75149 | -0.41488 | 29018 ft | 383 kts | 318° |
| 2026-05-07 23:45 | 45.77229 | -0.43835 | 28590 ft | 378 kts | 318° |
| 2026-05-07 23:45 | 45.79284 | -0.46157 | 28180 ft | 374 kts | 318° |
| 2026-05-07 23:46 | 45.81312 | -0.48450 | 27763 ft | 370 kts | 318° |
| 2026-05-07 23:46 | 45.83320 | -0.50722 | 27362 ft | 366 kts | 318° |
| 2026-05-07 23:46 | 45.85306 | -0.52971 | 26957 ft | 362 kts | 318° |
| 2026-05-07 23:46 | 45.87271 | -0.55201 | 26540 ft | 359 kts | 318° |
| 2026-05-07 23:47 | 45.89222 | -0.57416 | 26143 ft | 356 kts | 318° |
| 2026-05-07 23:47 | 45.91164 | -0.59624 | 25705 ft | 354 kts | 318° |
| 2026-05-07 23:47 | 45.93086 | -0.61816 | 25289 ft | 352 kts | 318° |
| 2026-05-07 23:47 | 45.94976 | -0.63973 | 24855 ft | 351 kts | 318° |
| 2026-05-07 23:48 | 45.96885 | -0.66150 | 24424 ft | 350 kts | 318° |
| 2026-05-07 23:48 | 45.98788 | -0.68321 | 23983 ft | 349 kts | 318° |
| 2026-05-07 23:48 | 46.00690 | -0.70492 | 23538 ft | 349 kts | 318° |
| 2026-05-07 23:48 | 46.02590 | -0.72662 | 23050 ft | 348 kts | 318° |
| 2026-05-07 23:49 | 46.04476 | -0.74817 | 22618 ft | 345 kts | 318° |
| 2026-05-07 23:49 | 46.06345 | -0.76957 | 22186 ft | 343 kts | 318° |
| 2026-05-07 23:49 | 46.08211 | -0.79098 | 21761 ft | 341 kts | 318° |
| 2026-05-07 23:49 | 46.10064 | -0.81222 | 21338 ft | 340 kts | 318° |
| 2026-05-07 23:50 | 46.11908 | -0.83336 | 20923 ft | 338 kts | 318° |
| 2026-05-07 23:50 | 46.13742 | -0.85441 | 20506 ft | 336 kts | 318° |
| 2026-05-07 23:50 | 46.15570 | -0.87543 | 20103 ft | 335 kts | 318° |
| 2026-05-07 23:50 | 46.17387 | -0.89632 | 19698 ft | 334 kts | 318° |
| 2026-05-07 23:51 | 46.19203 | -0.91723 | 19280 ft | 334 kts | 318° |
| 2026-05-07 23:51 | 46.21016 | -0.93813 | 18882 ft | 333 kts | 318° |
| 2026-05-07 23:51 | 46.22820 | -0.95898 | 18487 ft | 332 kts | 318° |
| 2026-05-07 23:51 | 46.24618 | -0.97976 | 18074 ft | 331 kts | 318° |
| 2026-05-07 23:52 | 46.26412 | -1.00051 | 17673 ft | 329 kts | 318° |
| 2026-05-07 23:52 | 46.28198 | -1.02115 | 17282 ft | 327 kts | 318° |
| 2026-05-07 23:52 | 46.29973 | -1.04164 | 16904 ft | 326 kts | 318° |
| 2026-05-07 23:52 | 46.31737 | -1.06207 | 16540 ft | 324 kts | 318° |
| 2026-05-07 23:53 | 46.33488 | -1.08239 | 16157 ft | 323 kts | 318° |
| 2026-05-07 23:53 | 46.35240 | -1.10270 | 15788 ft | 322 kts | 318° |
| 2026-05-07 23:53 | 46.36982 | -1.12296 | 15420 ft | 321 kts | 318° |
| 2026-05-07 23:53 | 46.38720 | -1.14320 | 15047 ft | 320 kts | 318° |
| 2026-05-07 23:54 | 46.40459 | -1.16344 | 14673 ft | 320 kts | 318° |
| 2026-05-07 23:54 | 46.41609 | -1.17685 | 14451 ft | 320 kts | 318° |
| 2026-05-07 23:54 | 46.43343 | -1.19707 | 14075 ft | 320 kts | 318° |
| 2026-05-07 23:54 | 46.45078 | -1.21728 | 13697 ft | 320 kts | 318° |
| 2026-05-07 23:55 | 46.46810 | -1.23746 | 13300 ft | 318 kts | 318° |
| 2026-05-07 23:55 | 46.48528 | -1.25750 | 12916 ft | 317 kts | 318° |
| 2026-05-07 23:55 | 46.50242 | -1.27751 | 12549 ft | 315 kts | 318° |
| 2026-05-07 23:55 | 46.51942 | -1.29737 | 12171 ft | 313 kts | 319° |
| 2026-05-07 23:56 | 46.53634 | -1.31715 | 11796 ft | 312 kts | 319° |
| 2026-05-07 23:56 | 46.55318 | -1.33687 | 11419 ft | 311 kts | 319° |
| 2026-05-07 23:56 | 46.56997 | -1.35657 | 11032 ft | 310 kts | 319° |
| 2026-05-07 23:56 | 46.58676 | -1.37619 | 10645 ft | 309 kts | 321° |
| 2026-05-07 23:57 | 46.60537 | -1.39188 | 10301 ft | 309 kts | 336° |
| 2026-05-07 23:57 | 46.62559 | -1.40077 | 10178 ft | 299 kts | 344° |
| 2026-05-07 23:57 | 46.64561 | -1.40834 | 9902 ft | 296 kts | 343° |
| 2026-05-07 23:57 | 46.66543 | -1.41593 | 9545 ft | 294 kts | 343° |
| 2026-05-07 23:58 | 46.68512 | -1.42349 | 9181 ft | 292 kts | 343° |
| 2026-05-07 23:58 | 46.70457 | -1.43099 | 8635 ft | 288 kts | 343° |
| 2026-05-07 23:58 | 46.72387 | -1.43849 | 7995 ft | 286 kts | 343° |
| 2026-05-07 23:58 | 46.74302 | -1.44605 | 7466 ft | 286 kts | 343° |
| 2026-05-07 23:59 | 46.76211 | -1.45362 | 7064 ft | 285 kts | 343° |
| 2026-05-07 23:59 | 46.78113 | -1.46121 | 6707 ft | 283 kts | 343° |
| 2026-05-07 23:59 | 46.80012 | -1.46879 | 6374 ft | 280 kts | 344° |
| 2026-05-07 23:59 | 46.81866 | -1.47619 | 5755 ft | 276 kts | 344° |
| 2026-05-08 00:00 | 46.83688 | -1.48342 | 5303 ft | 266 kts | 344° |
| 2026-05-08 00:00 | 46.85414 | -1.49025 | 5085 ft | 249 kts | 344° |
| 2026-05-08 00:00 | 46.87057 | -1.49676 | 4752 ft | 240 kts | 344° |
| 2026-05-08 00:00 | 46.88670 | -1.50317 | 4627 ft | 240 kts | 345° |
| 2026-05-08 00:01 | 46.90247 | -1.51100 | 4495 ft | 239 kts | 328° |
| 2026-05-08 00:01 | 46.91331 | -1.52866 | 4366 ft | 236 kts | 290° |
| 2026-05-08 00:01 | 46.91478 | -1.55206 | 4243 ft | 234 kts | 261° |
| 2026-05-08 00:01 | 46.91269 | -1.57542 | 4134 ft | 235 kts | 262° |
| 2026-05-08 00:02 | 46.91139 | -1.59929 | 3950 ft | 236 kts | 266° |
| 2026-05-08 00:02 | 46.91118 | -1.62328 | 3753 ft | 236 kts | 270° |
| 2026-05-08 00:02 | 46.91214 | -1.64724 | 3549 ft | 236 kts | 274° |
| 2026-05-08 00:02 | 46.91421 | -1.67110 | 3347 ft | 237 kts | 278° |
| 2026-05-08 00:03 | 46.91740 | -1.69425 | 3246 ft | 228 kts | 285° |
| 2026-05-08 00:03 | 46.92400 | -1.71491 | 3143 ft | 221 kts | 304° |
| 2026-05-08 00:03 | 46.93437 | -1.73095 | 3040 ft | 215 kts | 323° |
| 2026-05-08 00:03 | 46.94725 | -1.74129 | 2980 ft | 210 kts | 342° |
| 2026-05-08 00:04 | 46.96143 | -1.74547 | 2987 ft | 208 kts | 360° |
| 2026-05-08 00:04 | 46.97569 | -1.74337 | 2998 ft | 206 kts | 18° |
| 2026-05-08 00:04 | 46.98879 | -1.73541 | 3000 ft | 203 kts | 30° |
| 2026-05-08 00:04 | 47.00133 | -1.72593 | 3008 ft | 200 kts | 30° |
| 2026-05-08 00:05 | 47.01330 | -1.71690 | 2882 ft | 189 kts | 30° |
| 2026-05-08 00:05 | 47.02480 | -1.70819 | 2663 ft | 184 kts | 31° |
| 2026-05-08 00:05 | 47.03611 | -1.69963 | 2430 ft | 181 kts | 31° |
| 2026-05-08 00:05 | 47.04725 | -1.69119 | 2190 ft | 180 kts | 31° |
| 2026-05-08 00:06 | 47.05828 | -1.68283 | 1949 ft | 177 kts | 31° |
| 2026-05-08 00:06 | 47.06916 | -1.67458 | 1716 ft | 175 kts | 31° |
| 2026-05-08 00:06 | 47.07988 | -1.66645 | 1480 ft | 170 kts | 31° |
| 2026-05-08 00:06 | 47.09010 | -1.65870 | 1261 ft | 161 kts | 31° |
| 2026-05-08 00:07 | 47.09990 | -1.65125 | 1039 ft | 157 kts | 31° |
| 2026-05-08 00:07 | 47.10949 | -1.64393 | 832 ft | 154 kts | 30° |
| 2026-05-08 00:07 | 47.11897 | -1.63673 | 626 ft | 153 kts | 28° |
| 2026-05-08 00:07 | 47.12838 | -1.62961 | 418 ft | 152 kts | 28° |
| 2026-05-08 00:08 | 47.13772 | -1.62252 | 221 ft | 151 kts | 27° |
| 2026-05-08 00:08 | 47.14694 | -1.61551 | 99 ft | 142 kts | 28° |
| 2026-05-08 00:08 | 47.15426 | -1.60991 | 95 ft | 95 kts | 27° |
| 2026-05-08 00:08 | 47.15831 | -1.60675 | 95 ft | 22 kts | 34° |
| 2026-05-08 00:09 | 47.15827 | -1.60561 | 96 ft | 11 kts | 118° |
| 2026-05-08 00:09 | 47.15791 | -1.60495 | 97 ft | 6 kts | 140° |
| 2026-05-08 00:09 | 47.15770 | -1.60472 | 99 ft | 2 kts | 143° |
| 2026-05-08 00:09 | 47.15755 | -1.60456 | 98 ft | 9 kts | 143° |
| 2026-05-08 00:10 | 47.15676 | -1.60367 | 99 ft | 16 kts | 139° |
| 2026-05-08 00:10 | 47.15620 | -1.60293 | 99 ft | 6 kts | 136° |
| 2026-05-08 00:10 | 47.15608 | -1.60264 | 99 ft | 1 kts | 110° |
| 2026-05-08 00:10 | 47.15611 | -1.60247 | 99 ft | 3 kts | 72° |
| 2026-05-08 00:11 | 47.15627 | -1.60204 | 100 ft | 6 kts | 54° |
| 2026-05-08 00:11 | 47.15647 | -1.60163 | 98 ft | 0 kts | 58° |
| 2026-05-08 00:11 | 47.15647 | -1.60161 | 98 ft | 0 kts | 64° |
| 2026-05-08 00:11 | 47.15648 | -1.60160 | 98 ft | 0 kts | 63° |
| 2026-05-08 00:13 | 47.15690 | -1.60210 | 98 ft | 0 kts | 36° |
| 2026-05-08 00:22 | 47.15641 | -1.60113 | 98 ft | 0 kts | 46° |